עמוד ראשי
METAR-TAF:

METAR-TAF

שדות תעופה :

Cruzeiro do Sul, אקרי, ברזיל

קו רוחב: 07-38S, קו אורך: 072-40W, גובה: 170מטר

תצפית מזג אוויר נוכחית

הדו"ח נערך לפני 14 שעות ו 26דקות, בשעה 20:00 UTC
רוח 7קשר מכיוון צפון/צפון-מערב
טמפרטורת 31 צלסיוס
לחות 66%
לחץ 1009 hPa
ראות 10 קילומטר או יותר
עננים פזורים בגובה 3000רגל
עננים בינוניים בגובה 10000רגל

METAR: SBCZ 112000Z 34007KT 9999 SCT030 BKN100 31/24 Q1009

זמן: 05:26 (10:26 UTC)

תחזית

הדו"ח נערך לפני 5 שעות ו 57דקות, בשעה 04:29 UTC
תחזית בתוקף מ 12 ב 06 UTC עד 13 ב 06 UTC
רוח 5קשר מכיוון צפון/צפון-מערב
ראות 10 קילומטר או יותר
מעט עננים בגובה 1500רגל
זמנית מ -
12 ב 06 UTC עד 12 ב 09 UTC
ראות: 3000מטר
עננים בינוניים בגובה 200רגל
אד
יעשה מ
12 ב 17 UTC עד 12 ב 19 UTC
עננים פזורים בגובה 2000רגל
מעט עננים בגובה 3500רגל , קומולוס מיגדלי.
יעשה מ
13 ב 00 UTC עד 13 ב 02 UTC
ראות 10 קילומטר או יותר
ללא עננים שבסיסם נמוך מ 5000 רגל או קומולונימבוס

TAF: SBCZ 120429Z 1206/1306 33005KT 9999 FEW015 TN26/1206Z TX33/1218Z TEMPO 1206/1209 3000 BR BKN002 BECMG 1217/1219 SCT020 FEW035TCU BECMG 1300/1302 CAVOK RMK PFV

תצפיות ותחזיות מזג אוויר לגבי יותר מ- 4,000 שדות תעופה ברחבי העולם. דוחות METAR ו- TAF.

התחנות הזמינות מסומנות בנקודות צהובות ואדומות על גבי המפה.

העבר את העכבר לנקודה הצבעונית על מנת לראות את שם התחנה.

לאחר מכן, לחץ כדי לראות את תוכן ואת תחזיות מזג האוויר.

כדי לשנות את המפה: לחץ על הכפתורים הירוקים עם הפלוס השחור כדי להתקרב; על הכפתור הירוק עם המקף כדי להתרחק; או בחיצים הירוקים למפות סמוכות.


METAR-TAF: